Time;durP1;ratioP1;P1;durP2;ratioP2;P2;SDS_P1;SDS_P2;PMS_P1;PMS_P2;Temp;Humidity;BMP_temperature;BMP_pressure;BME280_temperature;BME280_humidity;BME280_pressure;Samples;Min_cycle;Max_cycle;Signal;HPM_P1;HPM_P2
2022/07/24 00:05:20;;;;;;;14.4;21;;;;;;;19.7;100;98660;;;;
2022/07/24 00:15:20;;;;;;;14.8;17.7;;;;;;;19.7;100;98670;;;;
2022/07/24 00:26:20;;;;;;;14.8;17.7;;;;;;;19.6;100;98670;;;;
2022/07/24 00:37:20;;;;;;;14.8;17.7;;;;;;;19.8;100;98660;;;;
2022/07/24 00:48:20;;;;;;;15.5;19.8;;;;;;;19.7;100;98670;;;;
2022/07/24 00:59:20;;;;;;;15.5;19.8;;;;;;;19.6;100;98670;;;;
2022/07/24 01:09:20;;;;;;;15.5;19.8;;;;;;;19.5;100;98670;;;;
2022/07/24 01:20:20;;;;;;;17.6;20.1;;;;;;;19.3;100;98660;;;;
2022/07/24 01:30:20;;;;;;;17.6;20.1;;;;;;;19.3;100;98650;;;;
2022/07/24 01:41:20;;;;;;;17.6;20.1;;;;;;;19.2;100;98670;;;;
2022/07/24 01:51:20;;;;;;;17.9;22.2;;;;;;;19.1;100;98660;;;;
2022/07/24 02:02:20;;;;;;;;;;;;;;;;;;;;;
2022/07/24 02:12:20;;;;;;;17.9;22.2;;;;;;;19.1;100;98690;;;;
2022/07/24 02:23:20;;;;;;;21.5;26.9;;;;;;;19.2;100;98700;;;;
2022/07/24 02:33:20;;;;;;;21.5;26.9;;;;;;;19.2;100;98710;;;;
2022/07/24 02:44:20;;;;;;;23.1;29.5;;;;;;;19.3;100;98720;;;;
2022/07/24 02:54:20;;;;;;;23.1;29.5;;;;;;;19.3;100;98740;;;;
2022/07/24 03:05:20;;;;;;;23.1;29.5;;;;;;;19.1;100;98740;;;;
2022/07/24 03:15:20;;;;;;;18.9;23.2;;;;;;;19;100;98750;;;;
2022/07/24 03:26:20;;;;;;;18.9;23.2;;;;;;;18.9;100;98770;;;;
2022/07/24 03:37:20;;;;;;;18.9;23.2;;;;;;;19;100;98780;;;;
2022/07/24 03:47:20;;;;;;;14.6;16.7;;;;;;;19;100;98790;;;;
2022/07/24 03:58:20;;;;;;;14.6;16.7;;;;;;;19.1;100;98800;;;;
2022/07/24 04:09:20;;;;;;;14.6;16.7;;;;;;;19.2;100;98810;;;;
2022/07/24 04:19:20;;;;;;;14;19.2;;;;;;;19.3;100;98810;;;;
2022/07/24 04:30:20;;;;;;;14;19.2;;;;;;;19.2;100;98820;;;;
2022/07/24 04:40:20;;;;;;;14;19.2;;;;;;;19.1;100;98850;;;;
2022/07/24 04:51:20;;;;;;;12.1;14.6;;;;;;;19.1;100;98860;;;;
2022/07/24 05:01:20;;;;;;;12.1;14.6;;;;;;;19.2;100;98860;;;;
2022/07/24 05:12:20;;;;;;;12.1;14.6;;;;;;;19.4;100;98860;;;;
2022/07/24 05:22:20;;;;;;;10.5;14.9;;;;;;;19.4;100;98860;;;;
2022/07/24 05:33:20;;;;;;;10.5;14.9;;;;;;;19.6;100;98870;;;;
2022/07/24 05:43:20;;;;;;;10.5;14.9;;;;;;;19.6;100;98880;;;;
2022/07/24 05:53:20;;;;;;;8.9;13.6;;;;;;;19.8;100;98880;;;;
2022/07/24 06:04:21;;;;;;;8.9;13.6;;;;;;;20;100;98880;;;;
2022/07/24 06:14:20;;;;;;;8.2;11.8;;;;;;;20.4;100;98880;;;;
2022/07/24 06:24:21;;;;;;;8.2;11.8;;;;;;;20.5;100;98890;;;;
2022/07/24 06:35:20;;;;;;;8.2;11.8;;;;;;;20.5;100;98890;;;;
2022/07/24 06:46:21;;;;;;;5.7;8.1;;;;;;;20.8;100;98910;;;;
2022/07/24 06:56:20;;;;;;;5.7;8.1;;;;;;;21;100;98910;;;;
2022/07/24 07:07:21;;;;;;;5.7;8.1;;;;;;;21.2;100;98910;;;;
2022/07/24 07:18:20;;;;;;;3.1;5.6;;;;;;;21.5;100;98910;;;;
2022/07/24 07:28:21;;;;;;;3.1;5.6;;;;;;;21.6;100;98910;;;;
2022/07/24 07:38:20;;;;;;;3.1;5.6;;;;;;;21.8;100;98930;;;;
2022/07/24 07:48:20;;;;;;;2.8;7.2;;;;;;;21.8;100;98930;;;;
2022/07/24 07:59:20;;;;;;;2.8;7.2;;;;;;;21.8;100;98930;;;;
2022/07/24 08:09:20;;;;;;;2.8;7.2;;;;;;;21.6;100;98940;;;;
2022/07/24 08:19:21;;;;;;;3;7.8;;;;;;;22.2;100;98950;;;;
2022/07/24 08:29:21;;;;;;;3;7.8;;;;;;;22.8;100;98950;;;;
2022/07/24 08:40:20;;;;;;;3;7.8;;;;;;;23.5;100;98950;;;;
2022/07/24 08:50:21;;;;;;;3.4;6.5;;;;;;;23;100;98960;;;;
2022/07/24 09:00:21;;;;;;;3.4;6.5;;;;;;;23.1;100;98950;;;;
2022/07/24 09:11:20;;;;;;;3.4;6.5;;;;;;;23.9;99.9;98950;;;;
2022/07/24 09:21:21;;;;;;;3.6;6.6;;;;;;;23.8;100;98960;;;;
2022/07/24 09:31:22;;;;;;;3.6;6.6;;;;;;;24;96.3;98960;;;;
2022/07/24 09:41:21;;;;;;;3.6;6.6;;;;;;;23.6;99.1;98960;;;;
2022/07/24 09:51:21;;;;;;;3.4;7.4;;;;;;;24;97.6;98960;;;;
2022/07/24 10:01:21;;;;;;;3.4;7.4;;;;;;;24.7;93.1;98940;;;;
2022/07/24 10:12:21;;;;;;;3.4;7.4;;;;;;;25.1;92.8;98940;;;;
2022/07/24 10:23:21;;;;;;;3.1;6.9;;;;;;;25.3;91.9;98940;;;;
2022/07/24 10:34:21;;;;;;;3.1;6.9;;;;;;;25.1;92.8;98930;;;;
2022/07/24 10:45:22;;;;;;;3.6;6.3;;;;;;;25;90;98920;;;;
2022/07/24 10:56:22;;;;;;;3.6;6.3;;;;;;;25.3;89.8;98920;;;;
2022/07/24 11:07:21;;;;;;;3.6;6.3;;;;;;;25.8;89.6;98910;;;;
2022/07/24 11:17:21;;;;;;;2.8;5.1;;;;;;;25.9;82.2;98910;;;;
2022/07/24 11:28:21;;;;;;;2.8;5.1;;;;;;;26.7;84.8;98900;;;;
2022/07/24 11:39:21;;;;;;;2.8;5.1;;;;;;;26.5;82.2;98900;;;;
2022/07/24 11:49:21;;;;;;;3.1;5.7;;;;;;;26.7;79.9;98890;;;;
2022/07/24 12:00:21;;;;;;;3.1;5.7;;;;;;;26.5;82.2;98890;;;;
2022/07/24 12:10:22;;;;;;;3.1;5.7;;;;;;;27.2;78.4;98880;;;;
2022/07/24 12:21:21;;;;;;;3.1;5.3;;;;;;;26.9;77.3;98870;;;;
2022/07/24 12:32:21;;;;;;;3.1;5.3;;;;;;;26.9;82;98870;;;;
2022/07/24 12:43:21;;;;;;;3.1;5.3;;;;;;;27;80.5;98860;;;;
2022/07/24 12:54:21;;;;;;;3.3;6.1;;;;;;;26.8;79.2;98870;;;;
2022/07/24 13:05:21;;;;;;;3.3;6.1;;;;;;;27.1;72.4;98870;;;;
2022/07/24 13:16:23;;;;;;;3.4;6.7;;;;;;;27.1;68.9;98870;;;;
2022/07/24 13:27:21;;;;;;;3.4;6.7;;;;;;;26.5;71.3;98850;;;;
2022/07/24 13:38:21;;;;;;;3.4;6.7;;;;;;;26.6;73.4;98850;;;;
2022/07/24 13:49:21;;;;;;;3.5;6;;;;;;;26.8;70.6;98840;;;;
2022/07/24 14:00:21;;;;;;;3.5;6;;;;;;;27;69.2;98830;;;;
2022/07/24 14:11:21;;;;;;;3.5;6;;;;;;;27.1;68.2;98830;;;;
2022/07/24 14:22:21;;;;;;;3.5;6;;;;;;;27.6;66;98820;;;;
2022/07/24 14:32:21;;;;;;;3.5;6;;;;;;;28;64.9;98820;;;;
2022/07/24 14:42:21;;;;;;;3.5;6;;;;;;;28;63;98800;;;;
2022/07/24 14:53:21;;;;;;;3.1;5.4;;;;;;;27.6;61.1;98800;;;;
2022/07/24 15:04:21;;;;;;;3.1;5.4;;;;;;;28;58.8;98800;;;;
2022/07/24 15:14:21;;;;;;;2.5;4.3;;;;;;;29.9;51.9;98800;;;;
2022/07/24 15:25:21;;;;;;;2.5;4.3;;;;;;;31.5;48.9;98800;;;;
2022/07/24 15:35:21;;;;;;;2.5;4.3;;;;;;;33.6;43;98800;;;;
2022/07/24 15:46:21;;;;;;;2.5;4.7;;;;;;;35.3;41.5;98800;;;;
2022/07/24 15:56:21;;;;;;;2.5;4.7;;;;;;;33.7;41.5;98790;;;;
2022/07/24 16:07:21;;;;;;;2.5;4.7;;;;;;;34.4;41.3;98790;;;;
2022/07/24 16:18:21;;;;;;;2.1;4.2;;;;;;;32.2;43.8;98770;;;;
2022/07/24 16:29:21;;;;;;;2.1;4.2;;;;;;;31.9;44.9;98760;;;;
2022/07/24 16:39:21;;;;;;;2.1;4.2;;;;;;;31.3;46.1;98760;;;;
2022/07/24 16:50:21;;;;;;;2;3.8;;;;;;;31.7;45.5;98760;;;;
2022/07/24 17:00:21;;;;;;;2;3.8;;;;;;;33;43.3;98770;;;;
2022/07/24 17:11:21;;;;;;;2;3.8;;;;;;;33.5;43.5;98760;;;;
2022/07/24 17:21:22;;;;;;;2.2;4;;;;;;;31.2;45.6;98750;;;;
2022/07/24 17:32:21;;;;;;;2.2;4;;;;;;;28.5;50.7;98750;;;;
2022/07/24 17:42:21;;;;;;;2.2;4;;;;;;;26.7;56.9;98750;;;;
2022/07/24 17:53:21;;;;;;;2.5;5.6;;;;;;;27.4;56.8;98750;;;;
2022/07/24 18:03:21;;;;;;;2.5;5.6;;;;;;;26.1;59.8;98750;;;;
2022/07/24 18:13:21;;;;;;;2.5;5.6;;;;;;;25;63.6;98760;;;;
2022/07/24 18:24:22;;;;;;;2;4.7;;;;;;;23.8;70.2;98760;;;;
2022/07/24 18:34:21;;;;;;;2;4.7;;;;;;;23.1;71.6;98760;;;;
2022/07/24 18:45:21;;;;;;;2.8;5.1;;;;;;;22.1;79.6;98780;;;;
2022/07/24 18:56:21;;;;;;;2.8;5.1;;;;;;;21.1;85.1;98780;;;;
2022/07/24 19:06:21;;;;;;;2.8;5.1;;;;;;;20.5;88.2;98790;;;;
2022/07/24 19:16:21;;;;;;;2.6;5;;;;;;;20;93.9;98800;;;;
2022/07/24 19:27:21;;;;;;;2.6;5;;;;;;;19.5;99.5;98800;;;;
2022/07/24 19:37:21;;;;;;;2.6;5;;;;;;;19;100;98800;;;;
2022/07/24 19:47:21;;;;;;;3.1;6.1;;;;;;;18.7;100;98800;;;;
2022/07/24 19:57:21;;;;;;;3.1;6.1;;;;;;;18.3;100;98800;;;;
2022/07/24 20:08:21;;;;;;;3.1;6.1;;;;;;;18;100;98810;;;;
2022/07/24 20:18:21;;;;;;;3.1;5.9;;;;;;;17.8;100;98800;;;;
2022/07/24 20:28:21;;;;;;;3.1;5.9;;;;;;;17.6;100;98820;;;;
2022/07/24 20:39:21;;;;;;;3.1;5.9;;;;;;;17.2;100;98830;;;;
2022/07/24 20:50:21;;;;;;;3.5;7.1;;;;;;;17;100;98830;;;;
2022/07/24 21:01:21;;;;;;;3.5;7.1;;;;;;;16.8;100;98830;;;;
2022/07/24 21:12:21;;;;;;;3.5;7.1;;;;;;;16.5;100;98840;;;;
2022/07/24 21:22:21;;;;;;;3;6.6;;;;;;;16.4;100;98840;;;;
2022/07/24 21:32:21;;;;;;;3;6.6;;;;;;;16.2;100;98850;;;;
2022/07/24 21:42:21;;;;;;;3;6.6;;;;;;;16;100;98850;;;;
2022/07/24 21:52:21;;;;;;;3.5;8.1;;;;;;;15.8;100;98850;;;;
2022/07/24 22:03:21;;;;;;;3.5;8.1;;;;;;;15.6;100;98840;;;;
2022/07/24 22:14:21;;;;;;;3.5;8.1;;;;;;;15.4;100;98850;;;;
2022/07/24 22:24:21;;;;;;;3;6.1;;;;;;;15.2;100;98860;;;;
2022/07/24 22:34:21;;;;;;;3;6.1;;;;;;;15;100;98850;;;;
2022/07/24 22:45:21;;;;;;;3.6;5.5;;;;;;;14.8;100;98840;;;;
2022/07/24 22:55:21;;;;;;;3.6;5.5;;;;;;;14.6;100;98840;;;;
2022/07/24 23:05:21;;;;;;;3.6;5.5;;;;;;;14.4;100;98840;;;;
2022/07/24 23:16:21;;;;;;;3.8;7.2;;;;;;;14.2;100;98830;;;;
2022/07/24 23:26:21;;;;;;;3.8;7.2;;;;;;;14;100;98830;;;;
2022/07/24 23:37:21;;;;;;;3.8;7.2;;;;;;;13.9;100;98830;;;;
2022/07/24 23:48:21;;;;;;;3.9;6.1;;;;;;;13.8;100;98830;;;;
2022/07/24 23:58:21;;;;;;;3.9;6.1;;;;;;;13.6;100;98820;;;;
